createdAt,value
2023-03-22T00:02:40.422Z,8.80
2023-03-22T00:12:41.534Z,8.80
2023-03-22T00:22:41.913Z,9.50
2023-03-22T00:42:43.431Z,9.70
2023-03-22T00:52:44.212Z,8.40
2023-03-22T01:02:44.855Z,8.80
2023-03-22T01:12:45.501Z,9.90
2023-03-22T01:22:46.221Z,10.30
2023-03-22T01:32:46.808Z,9.80
2023-03-22T01:42:47.366Z,8.40
2023-03-22T01:52:47.891Z,9.90
2023-03-22T02:02:48.908Z,9.50
2023-03-22T02:12:50.790Z,10.20
2023-03-22T02:22:49.750Z,10.50
2023-03-22T02:32:50.363Z,10.60
2023-03-22T02:42:50.901Z,11.10
2023-03-22T02:52:51.493Z,10.90
2023-03-22T03:02:52.380Z,10.70
2023-03-22T03:12:52.656Z,10.00
2023-03-22T03:22:53.102Z,10.30
2023-03-22T03:32:53.828Z,9.10
2023-03-22T03:42:54.104Z,11.50
2023-03-22T03:52:54.597Z,9.10
2023-03-22T04:02:55.138Z,11.30
2023-03-22T04:12:55.656Z,10.30
2023-03-22T04:22:56.145Z,9.60
2023-03-22T04:32:56.637Z,9.90
2023-03-22T04:42:57.112Z,10.50
2023-03-22T04:52:57.634Z,9.60
2023-03-22T05:02:58.304Z,8.90
2023-03-22T05:12:58.774Z,9.70
2023-03-22T05:22:59.009Z,10.70
2023-03-22T05:32:59.616Z,10.40
2023-03-22T05:43:00.198Z,9.00
2023-03-22T05:53:00.443Z,10.20
2023-03-22T06:03:00.979Z,10.80
2023-03-22T06:13:01.581Z,11.80
2023-03-22T06:23:02.220Z,11.20
2023-03-22T06:33:02.823Z,9.40
2023-03-22T06:43:06.312Z,9.10
2023-03-22T06:53:03.989Z,8.30
2023-03-22T07:03:04.682Z,8.00
2023-03-22T07:13:05.376Z,7.20
2023-03-22T07:23:06.208Z,7.50
2023-03-22T07:33:06.880Z,6.90
2023-03-22T07:43:07.656Z,5.80
2023-03-22T07:53:08.531Z,7.40
2023-03-22T08:03:09.718Z,7.40
2023-03-22T08:13:10.465Z,8.30
2023-03-22T08:23:11.416Z,8.30
2023-03-22T08:33:12.461Z,9.10
2023-03-22T08:43:13.418Z,7.10
2023-03-22T08:53:14.710Z,9.70
2023-03-22T09:03:15.600Z,7.40
2023-03-22T09:13:16.420Z,10.00
2023-03-22T09:23:17.489Z,9.20
2023-03-22T09:33:18.461Z,8.40
2023-03-22T09:43:19.768Z,9.10
2023-03-22T09:53:20.570Z,8.70
2023-03-22T10:03:21.732Z,7.00
2023-03-22T10:13:22.697Z,6.70
2023-03-22T10:23:23.816Z,6.50
2023-03-22T10:33:25.144Z,6.50
2023-03-22T10:43:26.047Z,5.90
2023-03-22T10:53:27.287Z,4.70
2023-03-22T11:03:28.222Z,5.00
2023-03-22T11:13:29.298Z,4.80
2023-03-22T11:23:30.464Z,4.50
2023-03-22T11:33:31.730Z,4.50
2023-03-22T11:43:32.912Z,4.30
2023-03-22T11:53:35.545Z,5.40
2023-03-22T12:03:37.636Z,5.40
2023-03-22T12:13:36.209Z,5.00
2023-03-22T12:23:37.448Z,5.70
2023-03-22T12:33:38.603Z,6.00
2023-03-22T12:43:39.760Z,5.20
2023-03-22T12:53:41.082Z,5.10
2023-03-22T13:03:42.643Z,5.80
2023-03-22T13:13:43.747Z,5.80
2023-03-22T13:23:44.727Z,4.50
2023-03-22T13:33:46.441Z,5.30
2023-03-22T13:43:47.358Z,4.20
2023-03-22T13:53:48.421Z,3.00
2023-03-22T14:03:49.787Z,3.20
2023-03-22T14:13:51.127Z,2.50
2023-03-22T14:53:56.083Z,3.80
2023-03-22T15:03:57.242Z,2.70
2023-03-22T15:13:58.533Z,3.60
2023-03-22T15:23:59.745Z,4.00
2023-03-22T15:34:01.006Z,3.80
2023-03-22T15:44:02.292Z,3.90
2023-03-22T16:04:04.791Z,5.30
2023-03-22T16:14:05.998Z,5.60
2023-03-22T16:34:08.337Z,5.60
2023-03-22T16:44:09.536Z,5.10
2023-03-22T16:54:10.731Z,5.30
2023-03-22T17:04:11.931Z,5.80
2023-03-22T17:14:13.423Z,6.10
2023-03-22T17:24:14.580Z,8.70
2023-03-22T17:34:15.438Z,6.60
2023-03-22T17:44:16.662Z,6.40
2023-03-22T17:54:56.946Z,6.20
2023-03-22T18:04:19.101Z,5.90
2023-03-22T18:14:27.082Z,7.10
2023-03-22T18:24:21.173Z,7.30
2023-03-22T18:34:22.237Z,6.90
2023-03-22T18:44:23.117Z,6.80
2023-03-22T18:54:24.046Z,8.80
2023-03-22T19:04:27.443Z,11.00
2023-03-22T19:15:17.472Z,10.20
2023-03-22T19:24:26.746Z,12.40
2023-03-22T19:34:27.812Z,9.90
2023-03-22T19:44:28.875Z,8.80
2023-03-22T19:54:36.265Z,9.80
2023-03-22T20:04:30.637Z,8.10
2023-03-22T20:14:31.522Z,7.00
2023-03-22T20:24:32.056Z,6.90
2023-03-22T20:34:33.033Z,8.80
2023-03-22T20:44:33.625Z,9.00
2023-03-22T21:04:35.140Z,7.30
2023-03-22T21:14:35.837Z,7.50
2023-03-22T21:24:36.415Z,8.10
2023-03-22T21:34:37.154Z,8.50
2023-03-22T21:54:38.647Z,9.60
2023-03-22T22:04:42.941Z,11.10
2023-03-22T22:14:39.635Z,9.80
2023-03-22T22:24:40.376Z,12.50
2023-03-22T22:34:40.865Z,14.10
2023-03-22T22:44:41.419Z,12.70
2023-03-22T22:54:42.042Z,12.20
2023-03-22T23:04:42.758Z,13.40
2023-03-22T23:14:43.062Z,12.60
2023-03-22T23:24:43.883Z,11.70
2023-03-22T23:34:44.229Z,13.90
2023-03-22T23:44:44.708Z,12.60
2023-03-22T23:54:45.296Z,12.10
